Time;durP1;ratioP1;P1;durP2;ratioP2;P2;SDS_P1;SDS_P2;PMS_P1;PMS_P2;Temp;Humidity;BMP_temperature;BMP_pressure;BME280_temperature;BME280_humidity;BME280_pressure;Samples;Min_cycle;Max_cycle;Signal;HPM_P1;HPM_P2
2023/11/16 00:02:21;;;;;;;4.93;1.80;;;6.20;99.90;;;;;;5041864;28;20675;-64
2023/11/16 00:04:52;;;;;;;4.95;1.67;;;6.20;99.90;;;;;;5037757;28;20037;-64
2023/11/16 00:07:24;;;;;;;6.20;1.50;;;6.20;99.90;;;;;;5036653;28;20056;-64
2023/11/16 00:09:56;;;;;;;5.90;1.70;;;6.20;99.90;;;;;;5037022;28;20057;-64
2023/11/16 00:12:29;;;;;;;4.63;1.23;;;6.20;99.90;;;;;;5035279;28;20528;-64
2023/11/16 00:15:01;;;;;;;5.72;1.38;;;6.10;99.90;;;;;;5047391;28;20041;-64
2023/11/16 00:17:28;;;;;;;3.92;1.48;;;6.10;99.90;;;;;;5041959;28;20095;-64
2023/11/16 00:20:00;;;;;;;4.78;1.45;;;6.10;99.90;;;;;;5041413;28;20048;-64
2023/11/16 00:22:32;;;;;;;3.97;1.88;;;6.10;99.90;;;;;;5034522;28;20409;-64
2023/11/16 00:25:07;;;;;;;3.92;1.65;;;6.10;99.90;;;;;;5046598;28;20136;-64
2023/11/16 00:27:39;;;;;;;4.28;1.45;;;6.20;99.90;;;;;;5037416;28;20112;-64
2023/11/16 00:30:08;;;;;;;6.03;1.50;;;6.20;99.90;;;;;;5019504;28;20124;-64
2023/11/16 00:32:40;;;;;;;6.15;1.50;;;6.20;99.90;;;;;;5039291;28;20048;-64
2023/11/16 00:35:11;;;;;;;2.58;1.27;;;6.20;99.90;;;;;;5037896;28;20045;-64
2023/11/16 00:37:43;;;;;;;3.58;1.45;;;6.20;99.90;;;;;;5039973;28;20043;-64
2023/11/16 00:40:15;;;;;;;5.30;1.52;;;6.20;99.90;;;;;;5038786;28;20033;-64
2023/11/16 00:42:42;;;;;;;5.38;1.95;;;6.20;99.90;;;;;;5039689;28;20068;-64
2023/11/16 00:45:14;;;;;;;4.68;1.63;;;6.20;99.90;;;;;;5041023;28;20048;-64
2023/11/16 00:47:46;;;;;;;3.10;1.20;;;6.10;99.90;;;;;;5035255;28;20484;-64
2023/11/16 00:50:14;;;;;;;5.55;2.38;;;6.10;99.90;;;;;;5038387;28;20087;-64
2023/11/16 00:52:40;;;;;;;3.45;1.60;;;6.10;99.90;;;;;;5038135;28;20064;-64
2023/11/16 00:55:15;;;;;;;8.70;2.70;;;6.20;99.90;;;;;;5037725;28;20029;-64
2023/11/16 00:57:44;;;;;;;4.03;1.70;;;6.20;99.90;;;;;;5032850;28;20115;-64
2023/11/16 01:00:17;;;;;;;4.82;2.00;;;6.10;99.90;;;;;;5038591;28;20045;-64
2023/11/16 01:02:50;;;;;;;5.13;1.45;;;6.10;99.90;;;;;;5042519;28;20049;-64
2023/11/16 01:05:22;;;;;;;4.80;1.38;;;6.10;99.90;;;;;;5026104;28;20045;-64
2023/11/16 01:07:50;;;;;;;2.83;1.15;;;6.10;99.90;;;;;;5035030;28;20030;-64
2023/11/16 01:10:24;;;;;;;5.20;1.50;;;6.20;99.90;;;;;;5040727;28;20051;-64
2023/11/16 01:12:56;;;;;;;4.65;1.90;;;6.20;99.90;;;;;;5051000;28;20040;-64
2023/11/16 01:15:28;;;;;;;6.78;2.15;;;6.10;99.90;;;;;;5032802;28;20046;-64
2023/11/16 01:18:05;;;;;;;4.95;1.27;;;6.20;99.90;;;;;;5029393;28;20755;-64
2023/11/16 01:20:35;;;;;;;10.90;2.05;;;6.20;99.90;;;;;;5032675;28;20152;-64
2023/11/16 01:23:15;;;;;;;4.13;1.45;;;6.20;99.90;;;;;;5033361;28;20037;-64
2023/11/16 01:25:52;;;;;;;2.92;1.50;;;6.20;99.90;;;;;;5057068;28;20497;-64
2023/11/16 01:28:20;;;;;;;3.20;1.33;;;6.20;99.90;;;;;;5040353;28;20037;-64
2023/11/16 01:30:48;;;;;;;5.10;1.20;;;6.20;99.90;;;;;;5043007;28;20033;-65
2023/11/16 01:33:20;;;;;;;6.50;1.67;;;6.20;99.90;;;;;;5021539;28;20052;-64
2023/11/16 01:35:51;;;;;;;6.50;1.73;;;6.10;99.90;;;;;;5042964;28;20493;-64
2023/11/16 01:38:19;;;;;;;6.05;1.58;;;6.10;99.90;;;;;;5041607;28;20541;-64
2023/11/16 01:40:51;;;;;;;6.73;1.40;;;6.10;99.90;;;;;;5039737;28;20123;-64
2023/11/16 01:43:18;;;;;;;7.40;2.72;;;6.10;99.90;;;;;;5044307;28;20641;-64
2023/11/16 01:45:49;;;;;;;6.53;1.50;;;6.10;99.90;;;;;;5041189;28;20045;-64
2023/11/16 01:48:23;;;;;;;4.55;1.50;;;6.10;99.90;;;;;;5046646;28;20037;-64
2023/11/16 01:50:56;;;;;;;11.00;3.15;;;6.00;99.90;;;;;;5043713;28;20042;-64
2023/11/16 01:53:24;;;;;;;1.92;1.38;;;6.00;99.90;;;;;;5046733;28;20648;-64
2023/11/16 01:55:56;;;;;;;8.00;1.35;;;5.90;99.90;;;;;;5042665;28;20072;-64
2023/11/16 01:58:31;;;;;;;6.55;2.22;;;5.90;99.90;;;;;;5040502;28;20551;-64
2023/11/16 02:01:04;;;;;;;3.58;1.20;;;5.90;99.90;;;;;;5042908;28;20171;-64
2023/11/16 02:03:36;;;;;;;2.88;1.48;;;6.00;99.90;;;;;;5038777;28;20413;-64
2023/11/16 02:06:08;;;;;;;6.28;1.45;;;5.90;99.90;;;;;;5035837;28;20041;-64
2023/11/16 02:08:40;;;;;;;6.65;1.60;;;6.00;99.90;;;;;;5048904;28;20076;-64
2023/11/16 02:11:08;;;;;;;7.40;1.25;;;6.00;99.90;;;;;;5036352;28;20029;-64
2023/11/16 02:13:39;;;;;;;5.75;2.53;;;6.00;99.90;;;;;;5045495;28;20045;-64
2023/11/16 02:16:13;;;;;;;5.85;1.42;;;6.10;99.90;;;;;;5044907;28;20409;-64
2023/11/16 02:18:45;;;;;;;4.82;1.73;;;6.00;99.90;;;;;;5046005;28;20117;-64
2023/11/16 02:21:17;;;;;;;4.47;1.27;;;6.00;99.90;;;;;;5037342;28;20068;-64
2023/11/16 02:23:46;;;;;;;4.28;1.70;;;6.00;99.90;;;;;;5042871;28;20044;-64
2023/11/16 02:26:18;;;;;;;2.92;1.38;;;6.00;99.90;;;;;;5039780;28;20044;-64
2023/11/16 02:28:51;;;;;;;2.90;1.20;;;6.10;99.90;;;;;;5039836;28;20033;-65
2023/11/16 02:31:23;;;;;;;5.80;2.40;;;6.10;99.90;;;;;;5034935;28;20048;-64
2023/11/16 02:33:50;;;;;;;4.53;1.25;;;6.10;99.90;;;;;;5040435;28;20400;-64
2023/11/16 02:36:21;;;;;;;3.97;1.17;;;6.20;99.90;;;;;;5040271;28;20426;-64
2023/11/16 02:38:53;;;;;;;2.88;1.38;;;6.20;99.90;;;;;;5045579;28;20050;-64
2023/11/16 02:41:25;;;;;;;4.78;1.33;;;6.20;99.90;;;;;;5038429;28;20099;-64
2023/11/16 02:43:57;;;;;;;5.45;1.38;;;6.30;99.90;;;;;;5038854;28;20505;-64
2023/11/16 02:46:31;;;;;;;3.28;1.33;;;6.30;99.90;;;;;;5040463;28;20049;-64
2023/11/16 02:48:58;;;;;;;3.22;1.52;;;6.30;99.90;;;;;;5038603;28;20387;-64
2023/11/16 02:51:31;;;;;;;9.00;2.20;;;6.40;99.90;;;;;;5042409;28;20045;-64
2023/11/16 02:54:02;;;;;;;2.13;0.90;;;6.40;99.90;;;;;;5036447;28;20045;-64
2023/11/16 02:56:34;;;;;;;4.47;1.35;;;6.40;99.90;;;;;;5035540;28;20060;-64
2023/11/16 02:59:07;;;;;;;4.93;1.23;;;6.40;99.90;;;;;;5041640;28;20052;-64
2023/11/16 03:01:34;;;;;;;4.00;1.55;;;6.40;99.90;;;;;;5040932;28;20061;-64
2023/11/16 03:04:06;;;;;;;4.55;1.70;;;6.50;99.90;;;;;;5035611;28;20217;-64
2023/11/16 03:06:38;;;;;;;5.82;1.90;;;6.50;99.90;;;;;;5033847;28;20060;-64
2023/11/16 03:09:16;;;;;;;9.00;1.40;;;6.50;99.90;;;;;;5044748;28;20048;-64
2023/11/16 03:11:48;;;;;;;5.90;1.70;;;6.50;99.90;;;;;;5039457;28;20051;-64
2023/11/16 03:14:15;;;;;;;4.00;1.30;;;6.50;99.90;;;;;;5038295;28;20068;-64
2023/11/16 03:16:51;;;;;;;7.15;1.80;;;6.50;99.90;;;;;;5048593;28;20082;-64
2023/11/16 03:19:23;;;;;;;2.88;1.10;;;6.50;99.90;;;;;;5036141;28;20055;-64
2023/11/16 03:21:55;;;;;;;6.80;2.35;;;6.50;99.90;;;;;;5041902;28;20049;-64
2023/11/16 03:24:27;;;;;;;4.22;1.00;;;6.50;99.90;;;;;;5040470;28;20395;-64
2023/11/16 03:26:59;;;;;;;4.30;0.98;;;6.60;99.90;;;;;;5040907;28;20120;-64
2023/11/16 03:29:34;;;;;;;3.47;1.23;;;6.60;99.90;;;;;;5033916;28;20046;-64
2023/11/16 03:32:09;;;;;;;6.25;1.73;;;6.50;99.90;;;;;;5040154;28;20405;-64
2023/11/16 03:34:41;;;;;;;4.50;1.58;;;6.50;99.90;;;;;;5039150;28;20037;-64
2023/11/16 03:37:08;;;;;;;4.00;1.40;;;6.60;99.90;;;;;;5040280;28;20041;-64
2023/11/16 03:39:39;;;;;;;4.35;1.45;;;6.60;99.90;;;;;;5036975;28;20049;-64
2023/11/16 03:42:11;;;;;;;3.88;1.30;;;6.60;99.90;;;;;;5037743;28;20126;-64
2023/11/16 03:44:38;;;;;;;2.70;1.30;;;6.60;99.90;;;;;;5038611;28;20037;-64
2023/11/16 03:47:10;;;;;;;6.25;1.85;;;6.60;99.90;;;;;;5025378;28;20409;-64
2023/11/16 03:49:37;;;;;;;3.75;1.23;;;6.70;99.90;;;;;;5037893;28;20195;-64
2023/11/16 03:52:10;;;;;;;6.93;2.40;;;6.70;99.90;;;;;;5039901;28;20041;-64
2023/11/16 03:54:45;;;;;;;5.27;1.10;;;6.70;99.90;;;;;;5035435;28;20531;-64
2023/11/16 03:57:16;;;;;;;5.97;1.60;;;6.70;99.90;;;;;;5038152;28;20045;-64
2023/11/16 03:59:48;;;;;;;6.93;2.40;;;6.70;99.90;;;;;;5023231;28;20041;-64
2023/11/16 04:02:20;;;;;;;4.07;1.52;;;6.70;99.90;;;;;;5035179;28;20058;-64
2023/11/16 04:04:52;;;;;;;5.47;2.10;;;6.70;99.90;;;;;;5034836;28;20498;-64
2023/11/16 04:07:19;;;;;;;4.07;1.40;;;6.70;99.90;;;;;;5037622;28;20156;-64
2023/11/16 04:09:51;;;;;;;5.72;1.58;;;6.70;99.90;;;;;;5045109;28;20194;-64
2023/11/16 04:12:18;;;;;;;7.78;3.70;;;6.60;99.90;;;;;;5035860;28;20106;-64
2023/11/16 04:14:44;;;;;;;6.20;1.23;;;6.60;99.90;;;;;;5035835;28;20123;-64
2023/11/16 04:17:16;;;;;;;5.35;2.08;;;6.60;99.90;;;;;;5019995;28;20051;-64
2023/11/16 04:19:51;;;;;;;6.57;2.83;;;6.60;99.90;;;;;;5038456;28;20555;-64
2023/11/16 04:22:21;;;;;;;4.65;1.20;;;6.60;99.90;;;;;;5038882;28;20045;-64
2023/11/16 04:24:54;;;;;;;3.72;1.00;;;6.60;99.90;;;;;;5025377;28;20057;-64
2023/11/16 04:27:26;;;;;;;3.53;1.40;;;6.60;99.90;;;;;;5037454;28;20052;-64
2023/11/16 04:29:59;;;;;;;8.90;1.48;;;6.70;99.90;;;;;;5038608;28;20049;-64
2023/11/16 04:32:31;;;;;;;2.63;1.02;;;6.60;99.90;;;;;;5040076;28;20124;-64
2023/11/16 04:35:08;;;;;;;2.35;1.30;;;6.60;99.90;;;;;;5044831;28;20488;-64
2023/11/16 04:37:40;;;;;;;3.38;1.38;;;6.70;99.90;;;;;;5035878;28;20111;-64
2023/11/16 04:40:13;;;;;;;3.38;1.02;;;6.70;99.90;;;;;;5037982;28;20069;-64
2023/11/16 04:42:47;;;;;;;4.80;1.65;;;6.70;99.90;;;;;;5040376;28;20048;-64
2023/11/16 04:45:14;;;;;;;3.70;1.40;;;6.60;99.90;;;;;;5035966;28;20037;-64
2023/11/16 04:47:45;;;;;;;3.67;1.05;;;6.60;99.90;;;;;;5036589;28;20033;-64
2023/11/16 04:50:18;;;;;;;5.47;1.17;;;6.70;99.90;;;;;;5038114;28;20536;-64
2023/11/16 04:52:50;;;;;;;5.30;1.42;;;6.60;99.90;;;;;;5043325;28;20037;-64
2023/11/16 04:55:23;;;;;;;2.25;1.40;;;6.60;99.90;;;;;;5039372;28;20041;-64
2023/11/16 04:57:55;;;;;;;7.18;1.80;;;6.60;99.90;;;;;;5039277;28;20060;-64
2023/11/16 05:00:27;;;;;;;1.92;1.20;;;6.60;99.90;;;;;;5037171;28;20561;-64
2023/11/16 05:02:59;;;;;;;6.70;1.52;;;6.60;99.90;;;;;;5021275;28;20037;-64
2023/11/16 05:05:33;;;;;;;2.40;1.05;;;6.60;99.90;;;;;;5039895;28;20502;-68
2023/11/16 05:08:06;;;;;;;7.47;1.77;;;6.60;99.90;;;;;;5041555;28;20036;-64
2023/11/16 05:10:39;;;;;;;6.45;1.40;;;6.60;99.90;;;;;;5040148;28;20088;-64
2023/11/16 05:13:11;;;;;;;6.15;1.30;;;6.60;99.90;;;;;;5034134;28;20037;-65
2023/11/16 05:15:45;;;;;;;4.85;1.30;;;6.60;99.90;;;;;;5036077;28;20053;-65
2023/11/16 05:18:12;;;;;;;3.67;1.05;;;6.70;99.90;;;;;;5037379;28;20124;-65
2023/11/16 05:20:44;;;;;;;4.20;1.83;;;6.70;99.90;;;;;;5039893;28;20037;-65
2023/11/16 05:23:19;;;;;;;5.88;1.42;;;6.60;99.90;;;;;;5027883;28;20407;-65
2023/11/16 05:25:50;;;;;;;4.20;1.02;;;6.70;99.90;;;;;;5037632;28;20029;-65
2023/11/16 05:28:17;;;;;;;4.97;1.20;;;6.70;99.90;;;;;;5037088;28;20102;-65
2023/11/16 05:30:50;;;;;;;7.70;1.50;;;6.70;99.90;;;;;;5037722;28;20033;-65
2023/11/16 05:33:22;;;;;;;4.27;1.60;;;6.70;99.90;;;;;;5040259;28;20034;-65
2023/11/16 05:35:51;;;;;;;3.13;1.23;;;6.70;99.90;;;;;;5040936;28;20128;-65
2023/11/16 05:38:22;;;;;;;3.05;1.20;;;6.70;99.90;;;;;;5038243;28;20041;-66
2023/11/16 05:40:52;;;;;;;6.25;1.35;;;6.80;99.90;;;;;;5037952;28;20537;-66
2023/11/16 05:43:24;;;;;;;4.30;1.48;;;6.80;99.90;;;;;;5034124;28;20038;-65
2023/11/16 05:45:56;;;;;;;7.85;1.40;;;6.80;99.90;;;;;;5038943;28;20041;-65
2023/11/16 05:48:23;;;;;;;3.17;1.75;;;6.80;99.90;;;;;;5035517;28;20065;-65
2023/11/16 05:50:50;;;;;;;3.63;1.45;;;6.80;99.90;;;;;;5036127;28;20067;-64
2023/11/16 05:53:22;;;;;;;5.35;1.30;;;6.80;99.90;;;;;;5043788;28;20040;-64
2023/11/16 05:55:55;;;;;;;3.15;1.17;;;6.80;99.90;;;;;;5047620;28;20051;-64
2023/11/16 05:58:27;;;;;;;3.83;1.10;;;6.80;99.90;;;;;;5041121;28;20037;-64
2023/11/16 06:00:59;;;;;;;3.95;1.30;;;6.80;99.90;;;;;;5042648;28;20041;-64
2023/11/16 06:03:27;;;;;;;5.03;1.20;;;6.70;99.90;;;;;;5047157;28;20080;-65
2023/11/16 06:05:59;;;;;;;6.18;1.40;;;6.70;99.90;;;;;;5043169;28;20044;-64
2023/11/16 06:08:31;;;;;;;4.28;1.20;;;6.70;99.90;;;;;;5044660;28;20653;-64
2023/11/16 06:10:59;;;;;;;3.90;1.50;;;6.70;99.90;;;;;;5041057;28;20041;-64
2023/11/16 06:13:34;;;;;;;3.88;1.23;;;6.70;99.90;;;;;;5045832;28;20037;-65
2023/11/16 06:16:01;;;;;;;5.38;1.35;;;6.70;99.90;;;;;;5045182;28;20118;-65
2023/11/16 06:18:27;;;;;;;4.93;1.15;;;6.70;99.90;;;;;;5041448;28;20050;-65
2023/11/16 06:20:59;;;;;;;4.63;1.42;;;6.70;99.90;;;;;;5026592;28;20041;-64
2023/11/16 06:23:33;;;;;;;4.03;1.30;;;6.70;99.90;;;;;;5043497;28;20076;-64
2023/11/16 06:26:06;;;;;;;3.92;1.20;;;6.70;99.90;;;;;;5043919;28;20040;-64
2023/11/16 06:28:35;;;;;;;4.55;1.30;;;6.70;99.90;;;;;;5047607;28;20032;-65
2023/11/16 06:31:06;;;;;;;2.35;1.10;;;6.70;99.90;;;;;;5047118;28;20724;-65
2023/11/16 06:33:39;;;;;;;2.90;1.73;;;6.70;99.90;;;;;;5042458;28;20049;-65
2023/11/16 06:36:11;;;;;;;3.38;1.15;;;6.70;99.90;;;;;;5042490;28;20038;-64
2023/11/16 06:38:43;;;;;;;1.60;0.88;;;6.70;99.90;;;;;;5046105;28;20653;-65
2023/11/16 06:41:16;;;;;;;5.35;1.13;;;6.70;99.90;;;;;;5040636;28;20048;-65
2023/11/16 06:43:48;;;;;;;4.80;1.50;;;6.70;99.90;;;;;;5044968;28;20807;-64
2023/11/16 06:46:15;;;;;;;4.05;1.20;;;6.70;99.90;;;;;;5037777;28;20033;-65
2023/11/16 06:48:48;;;;;;;2.70;1.30;;;6.70;99.90;;;;;;5048881;28;20041;-65
2023/11/16 06:51:17;;;;;;;4.78;1.83;;;6.60;99.90;;;;;;5045397;28;20064;-65
2023/11/16 06:53:49;;;;;;;5.32;1.77;;;6.60;99.90;;;;;;5041825;28;20038;-65
2023/11/16 06:56:23;;;;;;;2.75;1.17;;;6.60;99.90;;;;;;5041622;28;20497;-65
2023/11/16 06:58:55;;;;;;;4.55;1.55;;;6.60;99.90;;;;;;5040887;28;20116;-65
2023/11/16 07:01:32;;;;;;;4.53;1.13;;;6.60;99.90;;;;;;5034341;28;20053;-64
2023/11/16 07:03:59;;;;;;;3.13;1.30;;;6.60;99.90;;;;;;5041367;28;20635;-65
2023/11/16 07:06:31;;;;;;;5.88;1.52;;;6.60;99.90;;;;;;5022900;28;20046;-65
2023/11/16 07:09:03;;;;;;;2.80;1.10;;;6.50;99.90;;;;;;5039623;28;20033;-65
2023/11/16 07:11:35;;;;;;;5.32;1.75;;;6.50;99.90;;;;;;5038255;28;20043;-65
2023/11/16 07:14:07;;;;;;;8.07;2.55;;;6.50;99.90;;;;;;5036624;28;20502;-65
2023/11/16 07:16:39;;;;;;;4.10;1.38;;;6.50;99.90;;;;;;5038392;28;20398;-65
2023/11/16 07:19:16;;;;;;;5.00;1.67;;;6.50;99.90;;;;;;5023419;28;20044;-65
2023/11/16 07:21:48;;;;;;;5.82;1.25;;;6.50;99.90;;;;;;5033870;28;20060;-65
2023/11/16 07:24:22;;;;;;;2.63;1.35;;;6.50;99.90;;;;;;5038354;28;20049;-65
2023/11/16 07:26:50;;;;;;;2.72;1.38;;;6.50;99.90;;;;;;5041754;28;20063;-65
2023/11/16 07:29:23;;;;;;;3.13;1.45;;;6.50;99.90;;;;;;5040043;28;20064;-65
2023/11/16 07:31:50;;;;;;;4.72;1.50;;;6.50;99.90;;;;;;5040464;28;20047;-65
2023/11/16 07:34:23;;;;;;;5.00;1.38;;;6.50;99.90;;;;;;5034660;28;20583;-65
2023/11/16 07:36:55;;;;;;;4.20;1.45;;;6.50;99.90;;;;;;5035269;28;20073;-65
2023/11/16 07:39:27;;;;;;;3.63;1.00;;;6.40;99.90;;;;;;5041153;28;20053;-65
2023/11/16 07:41:59;;;;;;;3.15;1.13;;;6.40;99.90;;;;;;5038270;28;20136;-65
2023/11/16 07:44:31;;;;;;;5.53;1.20;;;6.40;99.90;;;;;;5027664;28;20055;-65
2023/11/16 07:47:03;;;;;;;3.25;1.05;;;6.50;99.90;;;;;;5035720;28;20037;-65
2023/11/16 07:49:32;;;;;;;3.95;1.13;;;6.50;99.90;;;;;;5040495;28;20402;-65
2023/11/16 07:52:04;;;;;;;3.63;1.23;;;6.50;99.90;;;;;;5034785;28;20449;-65
2023/11/16 07:54:31;;;;;;;4.80;1.30;;;6.60;99.90;;;;;;5034248;28;20038;-65
2023/11/16 07:57:04;;;;;;;3.03;1.38;;;6.60;99.90;;;;;;5038718;28;20523;-65
2023/11/16 07:59:37;;;;;;;4.68;1.30;;;6.70;99.90;;;;;;5037903;28;20053;-65
2023/11/16 08:02:09;;;;;;;4.50;1.35;;;6.80;99.90;;;;;;5038662;28;20115;-65
2023/11/16 08:04:40;;;;;;;4.68;1.42;;;6.80;99.90;;;;;;5041199;28;20046;-65
2023/11/16 08:07:12;;;;;;;2.17;1.10;;;6.80;99.90;;;;;;5041760;28;20049;-65
2023/11/16 08:09:46;;;;;;;5.03;1.52;;;6.80;99.90;;;;;;5035825;28;20056;-65
2023/11/16 08:12:18;;;;;;;6.35;1.20;;;6.80;99.90;;;;;;5034710;28;20413;-65
2023/11/16 08:14:51;;;;;;;3.17;1.42;;;6.80;99.90;;;;;;5038440;28;20045;-65
2023/11/16 08:17:24;;;;;;;;;;;6.80;99.90;;;;;;5037058;28;20047;-65
2023/11/16 08:19:57;;;;;;;4.13;1.40;;;6.90;99.90;;;;;;5035828;28;19925;-65
2023/11/16 08:22:29;;;;;;;4.32;1.15;;;6.90;99.90;;;;;;5034218;28;20038;-65
2023/11/16 08:25:01;;;;;;;2.78;1.40;;;6.80;99.90;;;;;;5038164;28;20130;-65
2023/11/16 08:27:28;;;;;;;3.17;1.10;;;6.90;99.90;;;;;;5034446;28;20040;-65
2023/11/16 08:30:00;;;;;;;2.92;1.20;;;6.90;99.90;;;;;;5038834;28;20561;-65
2023/11/16 08:32:28;;;;;;;3.63;1.40;;;6.90;99.90;;;;;;5035186;28;20516;-65
2023/11/16 08:35:00;;;;;;;5.10;1.30;;;6.90;99.90;;;;;;5032349;28;20391;-65
2023/11/16 08:37:32;;;;;;;5.60;1.42;;;7.00;99.90;;;;;;5026066;28;20426;-65
2023/11/16 08:40:04;;;;;;;3.45;1.20;;;7.00;99.90;;;;;;5037875;28;20048;-64
2023/11/16 08:42:42;;;;;;;4.40;1.10;;;7.00;99.90;;;;;;5032587;28;20101;-65
2023/11/16 08:45:20;;;;;;;2.92;1.73;;;7.10;99.90;;;;;;5033714;28;20052;-65
2023/11/16 08:47:59;;;;;;;5.60;1.50;;;7.20;99.90;;;;;;5053149;28;20417;-65
2023/11/16 08:50:33;;;;;;;2.67;1.00;;;7.20;99.90;;;;;;5036683;28;20529;-65
2023/11/16 08:53:07;;;;;;;4.57;1.83;;;7.20;99.90;;;;;;5034879;28;20071;-65
2023/11/16 08:55:34;;;;;;;3.88;1.23;;;7.20;99.90;;;;;;5037450;28;20048;-65
2023/11/16 08:58:01;;;;;;;2.47;1.02;;;7.20;99.90;;;;;;5033157;28;20068;-65
2023/11/16 09:00:37;;;;;;;4.63;1.20;;;7.20;99.90;;;;;;5039359;28;20046;-65
2023/11/16 09:03:09;;;;;;;3.70;1.00;;;7.40;99.90;;;;;;5038463;28;20063;-65
2023/11/16 09:05:42;;;;;;;3.75;1.98;;;7.40;99.90;;;;;;5035985;28;20052;-65
2023/11/16 09:08:14;;;;;;;5.50;1.20;;;7.50;99.90;;;;;;5034803;28;20037;-65
2023/11/16 09:10:46;;;;;;;3.72;1.15;;;7.50;99.90;;;;;;5036667;28;20374;-65
2023/11/16 09:13:13;;;;;;;3.40;1.00;;;7.60;99.90;;;;;;5039193;28;20029;-65
2023/11/16 09:15:46;;;;;;;3.25;1.00;;;7.70;99.90;;;;;;5040638;28;20057;-65
2023/11/16 09:18:19;;;;;;;2.88;0.90;;;7.70;99.90;;;;;;5033692;28;20124;-65
2023/11/16 09:20:51;;;;;;;5.13;1.15;;;7.80;99.90;;;;;;5034544;28;20412;-65
2023/11/16 09:23:20;;;;;;;4.70;1.30;;;7.90;99.90;;;;;;5036339;28;20148;-65
2023/11/16 09:25:51;;;;;;;;;;;7.90;99.90;;;;;;5021110;28;20528;-65
2023/11/16 09:28:23;;;;;;;3.22;1.08;;;7.90;99.90;;;;;;5033397;28;19925;-65
2023/11/16 09:30:57;;;;;;;4.90;1.42;;;8.00;99.90;;;;;;5039193;28;20033;-65
2023/11/16 09:33:28;;;;;;;3.53;1.20;;;8.00;99.90;;;;;;5037619;28;20048;-65
2023/11/16 09:36:00;;;;;;;2.38;1.30;;;8.00;99.90;;;;;;5037359;28;20535;-65
2023/11/16 09:38:28;;;;;;;1.65;1.10;;;8.00;99.90;;;;;;5040351;28;20041;-65
2023/11/16 09:41:08;;;;;;;3.22;1.08;;;8.00;99.90;;;;;;5039587;28;20040;-65
2023/11/16 09:43:41;;;;;;;3.22;1.40;;;8.00;99.90;;;;;;5034812;28;20160;-65
2023/11/16 09:46:09;;;;;;;5.30;1.50;;;8.00;99.90;;;;;;5045186;28;20541;-65
2023/11/16 09:48:41;;;;;;;4.35;2.53;;;8.00;99.90;;;;;;5041865;28;20052;-65
2023/11/16 09:51:14;;;;;;;4.35;1.60;;;7.90;99.90;;;;;;5043642;28;20476;-65
2023/11/16 09:53:50;;;;;;;5.35;1.45;;;7.90;99.90;;;;;;5036872;28;20048;-65
2023/11/16 09:56:27;;;;;;;3.63;1.50;;;7.90;99.90;;;;;;5036591;28;20087;-65
2023/11/16 09:59:06;;;;;;;2.95;1.55;;;7.90;99.90;;;;;;5039531;28;20127;-65
2023/11/16 10:01:46;;;;;;;4.82;1.80;;;7.80;99.90;;;;;;5038561;28;20049;-65
2023/11/16 10:04:18;;;;;;;3.13;1.25;;;7.90;99.90;;;;;;5040898;28;20048;-65
2023/11/16 10:06:50;;;;;;;4.28;1.67;;;8.00;99.90;;;;;;5036955;28;20040;-65
2023/11/16 10:09:26;;;;;;;3.38;1.73;;;8.00;99.90;;;;;;5037665;28;20144;-65
2023/11/16 10:12:07;;;;;;;4.20;1.42;;;7.90;99.90;;;;;;5037984;28;20047;-65
2023/11/16 10:14:48;;;;;;;5.70;1.58;;;7.90;99.90;;;;;;5044720;28;20436;-65
2023/11/16 10:17:25;;;;;;;5.50;1.55;;;7.90;99.90;;;;;;5033520;28;20617;-65
2023/11/16 10:19:57;;;;;;;4.22;1.65;;;7.90;99.90;;;;;;5038230;28;20189;-65
2023/11/16 10:22:29;;;;;;;4.97;1.60;;;7.90;99.90;;;;;;5043080;28;20127;-65
2023/11/16 10:25:01;;;;;;;4.28;1.50;;;7.90;99.90;;;;;;5039500;28;20061;-65
2023/11/16 10:27:33;;;;;;;4.68;2.03;;;8.00;99.90;;;;;;5037832;28;20044;-65
2023/11/16 10:30:06;;;;;;;3.22;1.30;;;8.00;99.90;;;;;;5037981;28;20068;-65
2023/11/16 10:32:42;;;;;;;3.42;1.65;;;8.00;99.90;;;;;;5037024;28;20033;-65
2023/11/16 10:35:15;;;;;;;5.25;1.65;;;8.10;99.90;;;;;;5039400;28;20127;-65
2023/11/16 10:37:48;;;;;;;4.38;1.38;;;8.20;99.90;;;;;;5035597;28;20394;-65
2023/11/16 10:40:20;;;;;;;3.13;1.60;;;8.20;99.90;;;;;;5035692;28;20041;-65
2023/11/16 10:42:47;;;;;;;3.03;1.33;;;8.10;99.90;;;;;;5036496;28;20132;-65
2023/11/16 10:45:19;;;;;;;7.97;2.53;;;8.20;99.90;;;;;;5044776;28;20045;-65
2023/11/16 10:47:51;;;;;;;4.97;1.38;;;8.30;99.90;;;;;;5038395;28;20073;-65
2023/11/16 10:50:18;;;;;;;4.35;1.45;;;8.40;99.90;;;;;;5038884;28;20037;-65
2023/11/16 10:52:49;;;;;;;3.42;1.20;;;8.40;99.90;;;;;;5035351;28;20545;-65
2023/11/16 10:55:24;;;;;;;4.50;1.38;;;8.40;99.90;;;;;;5038104;28;20041;-65
2023/11/16 10:58:04;;;;;;;4.85;1.30;;;8.40;99.90;;;;;;5038303;28;20037;-65
2023/11/16 11:00:39;;;;;;;8.85;1.50;;;8.40;99.90;;;;;;5053881;28;20048;-65
2023/11/16 11:03:11;;;;;;;4.50;1.50;;;8.50;99.90;;;;;;5020364;28;20056;-65
2023/11/16 11:05:52;;;;;;;2.17;1.08;;;8.50;99.90;;;;;;5036289;28;20042;-65
2023/11/16 11:08:42;;;;;;;3.10;1.13;;;8.50;99.90;;;;;;5040885;28;20092;-65
2023/11/16 11:11:24;;;;;;;4.55;1.25;;;8.50;99.90;;;;;;5032230;28;20040;-65
2023/11/16 11:13:54;;;;;;;1.95;1.08;;;8.50;99.90;;;;;;5035906;28;20060;-65
2023/11/16 11:16:25;;;;;;;4.68;1.20;;;8.50;99.90;;;;;;5036501;28;20132;-65
2023/11/16 11:18:57;;;;;;;6.55;3.42;;;8.50;99.90;;;;;;5039949;28;20060;-65
2023/11/16 11:21:32;;;;;;;3.80;1.75;;;8.60;99.90;;;;;;5039400;28;20159;-65
2023/11/16 11:24:08;;;;;;;3.85;1.48;;;8.60;99.90;;;;;;5037541;28;20041;-65
2023/11/16 11:26:48;;;;;;;2.78;1.48;;;8.70;99.90;;;;;;5036990;28;20482;-65
2023/11/16 11:29:23;;;;;;;3.47;1.30;;;8.70;99.90;;;;;;5042421;28;20081;-65
2023/11/16 11:32:03;;;;;;;3.17;1.10;;;8.70;99.90;;;;;;5038584;28;20038;-65
2023/11/16 11:34:36;;;;;;;3.22;1.23;;;8.70;99.90;;;;;;5039132;28;20172;-65
2023/11/16 11:37:10;;;;;;;4.63;1.47;;;8.70;99.90;;;;;;5039328;28;20037;-65
2023/11/16 11:39:45;;;;;;;5.00;1.10;;;8.70;99.90;;;;;;5036767;28;20136;-65
2023/11/16 11:42:17;;;;;;;4.30;1.30;;;8.70;99.90;;;;;;5033212;28;20049;-65
2023/11/16 11:44:51;;;;;;;2.88;1.38;;;8.70;99.90;;;;;;5041173;28;20041;-65
2023/11/16 11:47:24;;;;;;;4.82;1.23;;;8.70;99.90;;;;;;5036174;28;20761;-65
2023/11/16 11:49:56;;;;;;;2.45;1.05;;;8.80;99.90;;;;;;5040013;28;20068;-65
2023/11/16 11:52:29;;;;;;;3.72;1.10;;;8.80;99.90;;;;;;5032114;28;20478;-65
2023/11/16 11:55:01;;;;;;;30.17;6.88;;;8.80;99.90;;;;;;5038921;28;20513;-63
2023/11/16 11:57:33;;;;;;;10.20;3.50;;;8.80;99.90;;;;;;5037043;28;20041;-67
2023/11/16 12:00:07;;;;;;;5.53;1.77;;;8.80;99.90;;;;;;5037870;28;20045;-65
2023/11/16 12:02:39;;;;;;;3.88;1.88;;;8.80;99.90;;;;;;5035063;28;20038;-65
2023/11/16 12:05:18;;;;;;;2.72;1.40;;;8.90;99.90;;;;;;5038332;28;20039;-65
2023/11/16 12:08:01;;;;;;;5.95;2.85;;;9.00;99.90;;;;;;5039434;28;20057;-65
2023/11/16 12:10:33;;;;;;;3.45;1.25;;;9.00;99.90;;;;;;5040133;28;20053;-65
2023/11/16 12:13:07;;;;;;;7.13;1.48;;;9.00;99.90;;;;;;5036020;28;20034;-65
2023/11/16 12:15:35;;;;;;;4.03;1.80;;;9.10;99.90;;;;;;5041139;28;20033;-65
2023/11/16 12:18:10;;;;;;;2.35;1.45;;;9.10;99.90;;;;;;5041580;28;20041;-65
2023/11/16 12:20:37;;;;;;;5.63;1.77;;;9.10;99.90;;;;;;5039970;28;20441;-65
2023/11/16 12:23:10;;;;;;;4.30;1.88;;;9.20;99.90;;;;;;5037409;28;20056;-65
2023/11/16 12:25:44;;;;;;;3.67;1.85;;;9.30;99.90;;;;;;5035396;28;20052;-65
2023/11/16 12:28:15;;;;;;;3.72;1.48;;;9.30;99.90;;;;;;5035847;28;20505;-65
2023/11/16 12:30:49;;;;;;;2.05;1.30;;;9.30;99.90;;;;;;5033805;28;20574;-65
2023/11/16 12:33:16;;;;;;;6.68;2.20;;;9.30;99.90;;;;;;5035390;28;20140;-65
2023/11/16 12:35:43;;;;;;;3.58;1.13;;;9.30;99.90;;;;;;5036569;28;20044;-65
2023/11/16 12:38:11;;;;;;;4.68;1.92;;;9.20;99.90;;;;;;5033576;28;20140;-65
2023/11/16 12:40:42;;;;;;;5.82;2.10;;;9.20;99.90;;;;;;5035986;28;20818;-65
2023/11/16 12:43:15;;;;;;;6.80;2.58;;;9.30;99.90;;;;;;5037517;28;20120;-65
2023/11/16 12:45:47;;;;;;;7.30;3.25;;;9.30;99.90;;;;;;5038473;28;20125;-65
2023/11/16 12:48:19;;;;;;;21.85;4.35;;;9.40;99.90;;;;;;5033279;28;20052;-64
2023/11/16 12:50:52;;;;;;;12.00;3.45;;;9.40;99.90;;;;;;5035755;28;20030;-65
2023/11/16 12:53:19;;;;;;;7.88;2.70;;;9.40;99.90;;;;;;5034061;28;20059;-65
2023/11/16 12:55:51;;;;;;;5.45;3.25;;;9.50;99.90;;;;;;5034383;28;20038;-65
2023/11/16 12:58:18;;;;;;;4.32;2.55;;;9.50;99.90;;;;;;5035250;28;20029;-65
2023/11/16 13:00:51;;;;;;;6.60;2.30;;;9.50;99.90;;;;;;5038592;28;20129;-65
2023/11/16 13:03:24;;;;;;;3.63;2.15;;;9.50;99.90;;;;;;5035382;28;20038;-65
2023/11/16 13:05:56;;;;;;;7.80;3.63;;;9.40;99.90;;;;;;5035290;28;20540;-65
2023/11/16 13:08:28;;;;;;;8.23;4.00;;;9.40;99.90;;;;;;5039511;28;20481;-65
2023/11/16 13:11:00;;;;;;;10.30;5.40;;;9.30;99.90;;;;;;5033978;28;20309;-65
2023/11/16 13:13:32;;;;;;;16.48;9.07;;;9.30;99.90;;;;;;5037472;28;20041;-65
2023/11/16 13:16:05;;;;;;;16.60;7.75;;;9.30;99.90;;;;;;5039638;28;20033;-65
2023/11/16 13:18:31;;;;;;;14.68;8.68;;;9.30;99.90;;;;;;5034741;28;20033;-65
2023/11/16 13:21:09;;;;;;;8.77;5.53;;;9.30;99.90;;;;;;5030515;28;20056;-65
2023/11/16 13:23:47;;;;;;;7.60;4.00;;;9.30;99.90;;;;;;5039128;28;20120;-65